Time;durP1;ratioP1;P1;durP2;ratioP2;P2;SDS_P1;SDS_P2;PMS_P1;PMS_P2;Temp;Humidity;BMP_temperature;BMP_pressure;BME280_temperature;BME280_humidity;BME280_pressure;Samples;Min_cycle;Max_cycle;Signal;HPM_P1;HPM_P2
2023/10/26 00:00:42;;;;;;;57.10;45.70;;;;;;;7.11;100.00;97227.04;109536;1251;58992;-68
2023/10/26 00:03:29;;;;;;;50.20;40.30;;;;;;;7.09;100.00;97229.14;109554;1251;59023;-68
2023/10/26 00:05:56;;;;;;;56.10;44.70;;;;;;;7.05;100.00;97233.16;109557;1251;59435;-68
2023/10/26 00:08:22;;;;;;;56.50;43.80;;;;;;;7.03;100.00;97233.11;109602;1251;59198;-68
2023/10/26 00:10:50;;;;;;;69.90;46.00;;;;;;;7.03;100.00;97234.21;109567;1250;59005;-68
2023/10/26 00:13:16;;;;;;;63.90;47.00;;;;;;;7.04;100.00;97236.59;109557;1251;64399;-69
2023/10/26 00:15:43;;;;;;;69.00;46.70;;;;;;;7.07;100.00;97227.42;109571;1251;59255;-68
2023/10/26 00:18:09;;;;;;;65.90;44.80;;;;;;;7.07;100.00;97229.36;109546;1251;59063;-68
2023/10/26 00:20:36;;;;;;;61.30;46.50;;;;;;;7.06;100.00;97228.66;109558;1251;59650;-68
2023/10/26 00:23:04;;;;;;;103.60;45.30;;;;;;;7.05;100.00;97226.09;109556;1251;58989;-68
2023/10/26 00:25:31;;;;;;;91.40;48.30;;;;;;;7.04;100.00;97224.61;109535;1251;65221;-67
2023/10/26 00:27:58;;;;;;;89.80;47.40;;;;;;;7.02;100.00;97223.64;109572;1251;59239;-69
2023/10/26 00:30:25;;;;;;;143.80;46.50;;;;;;;7.01;100.00;97227.84;109562;1251;58968;-68
2023/10/26 00:32:51;;;;;;;113.70;46.10;;;;;;;7.00;100.00;97226.16;109550;1251;58994;-68
2023/10/26 00:35:18;;;;;;;105.90;43.50;;;;;;;7.00;100.00;97227.41;109572;1251;59013;-68
2023/10/26 00:37:44;;;;;;;71.70;43.60;;;;;;;7.00;100.00;97224.93;109389;1251;59386;-67
2023/10/26 00:40:12;;;;;;;69.50;43.30;;;;;;;6.99;100.00;97220.88;109546;1251;58937;-67
2023/10/26 00:42:39;;;;;;;54.70;41.60;;;;;;;6.97;100.00;97218.23;109551;1251;59094;-67
2023/10/26 00:45:05;;;;;;;54.30;43.00;;;;;;;6.94;100.00;97215.86;109597;1251;58936;-67
2023/10/26 00:47:32;;;;;;;46.90;38.20;;;;;;;6.91;100.00;97203.37;109576;1250;59193;-67
2023/10/26 00:49:59;;;;;;;44.80;35.80;;;;;;;6.89;100.00;97196.46;109533;1251;63947;-68
2023/10/26 00:52:26;;;;;;;47.10;38.10;;;;;;;6.90;100.00;97196.77;109558;1251;59108;-68
2023/10/26 00:54:53;;;;;;;51.30;39.00;;;;;;;6.92;100.00;97197.00;109557;1251;58957;-67
2023/10/26 00:57:22;;;;;;;44.10;38.80;;;;;;;6.94;100.00;97195.93;109592;1251;66064;-67
2023/10/26 00:59:50;;;;;;;47.80;37.80;;;;;;;6.95;100.00;97192.13;109568;1251;60424;-68
2023/10/26 01:02:18;;;;;;;44.40;37.90;;;;;;;6.96;100.00;97188.84;109571;1251;65301;-68
2023/10/26 01:04:45;;;;;;;46.60;39.30;;;;;;;6.97;100.00;97188.77;109558;1251;58997;-68
2023/10/26 01:07:12;;;;;;;47.40;40.20;;;;;;;6.99;100.00;97188.41;109565;1251;59153;-68
2023/10/26 01:09:38;;;;;;;52.50;41.60;;;;;;;7.02;100.00;97187.34;109573;1251;64805;-68
2023/10/26 06:01:50;;;;;;;36.70;32.90;;;;;;;8.92;100.00;97039.75;109715;1250;59046;-69
2023/10/26 06:04:16;;;;;;;40.80;35.40;;;;;;;8.96;100.00;97040.11;109714;1250;58897;-69
2023/10/26 06:06:43;;;;;;;41.60;37.20;;;;;;;8.99;100.00;97034.96;109706;1251;74733;-68
2023/10/26 06:09:10;;;;;;;39.00;34.90;;;;;;;9.03;100.00;97036.62;109685;1250;58958;-69
2023/10/26 06:11:37;;;;;;;40.90;36.50;;;;;;;9.07;100.00;97040.15;109687;1251;63890;-68
2023/10/26 06:14:04;;;;;;;39.10;35.00;;;;;;;9.10;100.00;97047.17;109682;1250;59205;-69
2023/10/26 06:16:30;;;;;;;52.20;47.10;;;;;;;9.13;100.00;97050.59;109676;1251;58970;-69
2023/10/26 06:18:57;;;;;;;88.70;80.50;;;;;;;9.16;100.00;97045.16;109678;1251;66788;-68
2023/10/26 06:21:23;;;;;;;67.30;60.80;;;;;;;9.19;100.00;97044.45;109726;1250;59037;-69
2023/10/26 06:23:50;;;;;;;46.10;41.10;;;;;;;9.23;100.00;97043.38;109703;1250;59081;-68
2023/10/26 06:26:16;;;;;;;67.80;61.20;;;;;;;9.28;100.00;97047.09;109708;1250;58997;-69
2023/10/26 06:28:43;;;;;;;70.60;63.50;;;;;;;9.31;100.00;97049.25;109672;1250;58861;-69
2023/10/26 06:31:11;;;;;;;68.00;61.10;;;;;;;9.35;100.00;97042.52;109706;1249;59234;-69
2023/10/26 06:33:38;;;;;;;75.20;67.50;;;;;;;9.37;100.00;97036.41;109703;1250;60362;-69
2023/10/26 06:36:05;;;;;;;62.00;55.50;;;;;;;9.40;100.00;97034.25;109671;1249;64159;-68
2023/10/26 06:38:31;;;;;;;46.00;41.00;;;;;;;9.42;100.00;97034.05;109731;1249;58954;-69
2023/10/26 06:40:58;;;;;;;46.60;41.50;;;;;;;9.43;100.00;97030.37;109697;1250;61350;-69
2023/10/26 06:43:25;;;;;;;43.20;37.90;;;;;;;9.45;100.00;97035.17;109667;1250;59344;-68
2023/10/26 06:45:51;;;;;;;42.90;38.30;;;;;;;9.46;100.00;97037.71;109750;1250;59698;-68
2023/10/26 06:48:19;;;;;;;39.50;35.50;;;;;;;9.48;100.00;97039.36;109678;1250;64194;-67
2023/10/26 06:50:47;;;;;;;39.40;35.10;;;;;;;9.51;100.00;97028.55;109666;1250;59026;-68
2023/10/26 06:53:14;;;;;;;38.40;34.60;;;;;;;9.55;100.00;97028.02;109673;1250;58844;-68
2023/10/26 06:55:41;;;;;;;36.30;32.60;;;;;;;9.59;100.00;97040.45;109453;1250;67056;-68
2023/10/26 06:58:07;;;;;;;38.20;34.20;;;;;;;9.62;100.00;97035.37;109713;1250;61230;-68
2023/10/26 07:00:34;;;;;;;35.70;32.00;;;;;;;9.65;100.00;97023.55;109680;1250;65464;-68
2023/10/26 07:03:01;;;;;;;32.70;29.30;;;;;;;9.69;100.00;97018.89;109520;1250;59151;-69
2023/10/26 07:05:28;;;;;;;30.70;25.30;;;;;;;9.74;100.00;97028.48;109706;1250;58879;-68
2023/10/26 07:07:55;;;;;;;26.60;22.60;;;;;;;9.82;100.00;97026.72;109693;1249;65338;-69
2023/10/26 07:10:22;;;;;;;27.90;23.80;;;;;;;9.92;100.00;97027.66;109689;1250;59051;-69
2023/10/26 07:12:49;;;;;;;30.60;24.60;;;;;;;10.06;100.00;97025.14;109672;1249;64008;-68
2023/10/26 07:15:16;;;;;;;21.90;19.40;;;;;;;10.19;100.00;97016.41;109673;1250;59067;-69
2023/10/26 07:17:43;;;;;;;18.90;15.20;;;;;;;10.32;100.00;97006.50;109661;1250;58966;-69
2023/10/26 07:20:12;;;;;;;14.50;12.60;;;;;;;10.45;100.00;97000.98;109553;1249;65843;-69
2023/10/26 07:22:39;;;;;;;13.70;11.90;;;;;;;10.57;100.00;97000.16;109465;1251;59867;-69
2023/10/26 07:25:06;;;;;;;11.70;10.40;;;;;;;10.66;100.00;97001.91;109660;1251;63105;-69
2023/10/26 07:27:33;;;;;;;14.00;12.50;;;;;;;10.74;100.00;97005.70;109501;1251;59026;-68
2023/10/26 07:30:01;;;;;;;13.30;12.00;;;;;;;10.82;100.00;97008.13;109671;1250;60664;-69
2023/10/26 07:32:31;;;;;;;10.30;7.30;;;;;;;10.87;100.00;97009.20;109690;1250;66927;-69
2023/10/26 07:34:58;;;;;;;7.80;7.00;;;;;;;10.94;100.00;97005.67;109395;1251;60052;-69
2023/10/26 07:37:25;;;;;;;9.90;8.90;;;;;;;11.01;100.00;97008.14;109524;1250;64105;-69
2023/10/26 07:39:51;;;;;;;10.60;8.20;;;;;;;11.09;100.00;97013.55;109530;1251;59403;-68
2023/10/26 07:42:18;;;;;;;18.90;15.70;;;;;;;11.15;100.00;97017.60;109729;1250;59061;-68
2023/10/26 07:44:45;;;;;;;14.30;8.20;;;;;;;11.18;100.00;97022.95;109703;1249;64862;-68
2023/10/26 07:47:12;;;;;;;19.20;8.50;;;;;;;11.24;100.00;97026.32;109701;1249;60110;-68
2023/10/26 07:49:39;;;;;;;14.70;7.00;;;;;;;11.29;100.00;97026.66;109742;1249;63714;-68
2023/10/26 07:52:05;;;;;;;12.40;6.20;;;;;;;11.34;100.00;97029.86;109704;1250;58970;-69
2023/10/26 07:54:32;;;;;;;12.80;7.50;;;;;;;11.39;100.00;97029.03;109733;1250;59029;-69
2023/10/26 07:56:58;;;;;;;10.20;5.90;;;;;;;11.44;100.00;97028.34;109558;1249;66139;-68
2023/10/26 07:59:25;;;;;;;8.00;5.00;;;;;;;11.50;100.00;97031.55;109709;1250;59503;-69
2023/10/26 08:01:51;;;;;;;9.30;4.40;;;;;;;11.56;100.00;97032.11;109663;1250;59052;-69
2023/10/26 08:04:18;;;;;;;6.20;3.90;;;;;;;11.64;100.00;97030.10;109698;1249;59050;-69
2023/10/26 08:06:45;;;;;;;4.50;3.60;;;;;;;11.73;100.00;97025.41;109710;1249;59185;-69
2023/10/26 08:09:12;;;;;;;7.80;3.80;;;;;;;11.82;100.00;97024.23;109756;1250;66016;-69
2023/10/26 08:11:39;;;;;;;5.80;3.60;;;;;;;11.94;100.00;97018.64;109436;1251;59908;-68
2023/10/26 08:14:06;;;;;;;6.20;3.40;;;;;;;12.07;100.00;97015.09;109656;1250;63037;-69
2023/10/26 08:16:32;;;;;;;6.20;3.60;;;;;;;12.20;100.00;97014.11;109728;1250;58959;-68
2023/10/26 08:18:59;;;;;;;6.80;4.00;;;;;;;12.32;100.00;97011.27;109738;1250;58941;-68
2023/10/26 08:21:25;;;;;;;5.00;3.50;;;;;;;12.41;100.00;97008.73;109697;1250;59080;-70
2023/10/26 08:23:52;;;;;;;5.80;4.20;;;;;;;12.46;100.00;97006.92;109732;1250;59014;-68
2023/10/26 08:26:18;;;;;;;5.80;3.70;;;;;;;12.55;100.00;97012.08;109669;1249;63751;-68
2023/10/26 08:28:45;;;;;;;6.30;3.90;;;;;;;12.66;100.00;97016.14;109697;1249;59749;-68
2023/10/26 08:31:11;;;;;;;4.30;3.20;;;;;;;12.81;100.00;97017.13;109704;1250;59017;-69
2023/10/26 08:33:38;;;;;;;3.50;3.00;;;;;;;12.96;100.00;97020.41;109702;1250;59033;-68
2023/10/26 08:36:05;;;;;;;4.10;2.90;;;;;;;13.12;100.00;97021.92;109698;1250;58984;-68
2023/10/26 08:38:32;;;;;;;3.20;2.60;;;;;;;13.19;100.00;97024.33;109676;1250;63936;-68
2023/10/26 08:40:59;;;;;;;3.90;2.50;;;;;;;13.23;100.00;97026.80;109734;1249;58948;-68
2023/10/26 08:43:28;;;;;;;3.30;2.20;;;;;;;13.23;100.00;97026.36;109487;1250;59083;-68
2023/10/26 08:45:58;;;;;;;7.20;6.50;;;;;;;13.24;100.00;97032.19;109745;1250;65004;-68
2023/10/26 08:48:28;;;;;;;3.50;2.30;;;;;;;13.26;100.00;97026.60;109738;1250;59915;-69
2023/10/26 08:50:55;;;;;;;7.50;4.30;;;;;;;13.31;100.00;97028.80;109665;1250;65098;-68
2023/10/26 08:53:22;;;;;;;3.40;2.50;;;;;;;13.35;100.00;97026.44;109329;1250;59130;-69
2023/10/26 08:55:52;;;;;;;3.90;2.80;;;;;;;13.40;100.00;97027.30;109671;1250;58966;-68
2023/10/26 08:58:20;;;;;;;2.70;2.40;;;;;;;13.47;100.00;97030.23;109690;1249;66034;-69
2023/10/26 09:00:50;;;;;;;2.30;2.10;;;;;;;13.62;100.00;97029.27;109606;1250;59990;-69
2023/10/26 09:03:16;;;;;;;3.40;2.20;;;;;;;13.82;100.00;97026.91;109665;1250;62683;-67
2023/10/26 09:05:55;;;;;;;2.40;2.00;;;;;;;14.01;100.00;97025.36;109719;1250;59021;-68
2023/10/26 09:08:23;;;;;;;2.10;1.70;;;;;;;14.17;100.00;97024.09;109624;1249;100906;-68
2023/10/26 09:10:51;;;;;;;2.60;1.60;;;;;;;14.27;100.00;97026.27;109674;1250;65877;-68
2023/10/26 09:13:28;;;;;;;2.10;1.70;;;;;;;14.39;100.00;97024.73;109432;1251;59856;-67
2023/10/26 09:15:58;;;;;;;2.30;1.60;;;;;;;14.52;100.00;97023.48;109634;1250;64169;-68
2023/10/26 09:18:28;;;;;;;1.70;1.30;;;;;;;14.59;100.00;97028.17;109663;1250;59056;-68
2023/10/26 09:21:05;;;;;;;1.30;1.20;;;;;;;14.68;100.00;97031.60;109211;1250;59024;-69
2023/10/26 09:23:35;;;;;;;2.00;1.10;;;;;;;14.80;100.00;97030.09;109708;1250;65702;-69
2023/10/26 09:26:04;;;;;;;1.60;1.40;;;;;;;14.94;100.00;97031.84;109405;1251;61034;-68
2023/10/26 09:28:53;;;;;;;1.70;1.60;;;;;;;15.07;100.00;97030.38;109666;1250;64532;-67
2023/10/26 09:31:21;;;;;;;1.40;1.30;;;;;;;15.11;100.00;97035.73;109676;1250;59037;-67
2023/10/26 09:33:49;;;;;;;2.80;1.50;;;;;;;15.18;100.00;97033.68;109689;1249;59076;-67
2023/10/26 09:36:18;;;;;;;0.90;0.90;;;;;;;15.23;100.00;97037.85;109724;1250;65774;-67
2023/10/26 09:38:44;;;;;;;1.70;1.50;;;;;;;15.25;100.00;97036.45;109547;1251;59050;-68
2023/10/26 09:41:13;;;;;;;1.80;1.40;;;;;;;15.28;100.00;97036.52;109695;1249;65212;-68
2023/10/26 09:43:43;;;;;;;1.20;1.00;;;;;;;15.35;100.00;97035.45;109656;1251;59015;-68
2023/10/26 09:46:14;;;;;;;2.30;1.40;;;;;;;15.47;100.00;97028.09;109712;1249;58876;-69
2023/10/26 09:48:41;;;;;;;2.00;1.80;;;;;;;15.66;100.00;97022.73;109526;1251;66115;-68
2023/10/26 09:51:10;;;;;;;3.00;1.10;;;;;;;15.83;100.00;97022.81;109688;1250;60704;-68
2023/10/26 09:53:40;;;;;;;1.20;1.10;;;;;;;15.96;100.00;97024.52;109423;1249;65396;-69
2023/10/26 09:56:11;;;;;;;2.50;0.90;;;;;;;16.07;100.00;97014.88;109499;1250;58940;-68
2023/10/26 09:58:40;;;;;;;1.20;1.10;;;;;;;16.15;100.00;97023.45;109694;1249;59025;-68
2023/10/26 10:01:33;;;;;;;1.90;1.20;;;;;;;16.29;100.00;97019.42;109734;1250;65837;-68
2023/10/26 10:04:00;;;;;;;2.80;1.60;;;;;;;16.45;100.00;97015.15;109690;1250;59023;-68
2023/10/26 10:06:50;;;;;;;3.40;1.20;;;;;;;16.52;100.00;97014.05;109693;1249;63772;-68
2023/10/26 10:09:24;;;;;;;2.20;1.60;;;;;;;16.60;100.00;97014.64;109623;1249;59084;-68
2023/10/26 10:12:06;;;;;;;1.70;1.40;;;;;;;16.64;100.00;97014.60;109698;1250;59015;-68
2023/10/26 10:14:48;;;;;;;1.30;1.10;;;;;;;16.57;100.00;97012.78;109592;1250;65202;-67
2023/10/26 10:17:18;;;;;;;2.00;1.30;;;;;;;16.49;100.00;97016.11;109660;1250;59791;-68
2023/10/26 10:20:14;;;;;;;5.00;1.40;;;;;;;16.38;100.00;97020.95;109695;1249;64743;-68
2023/10/26 10:22:40;;;;;;;1.90;1.20;;;;;;;16.31;100.00;97011.30;109659;1251;59033;-68
2023/10/26 10:25:10;;;;;;;1.40;0.90;;;;;;;16.35;100.00;97008.75;109729;1249;59354;-69
2023/10/26 10:27:38;;;;;;;2.00;1.00;;;;;;;16.39;100.00;97011.48;109717;1250;66241;-68
2023/10/26 10:30:08;;;;;;;2.20;1.20;;;;;;;16.40;100.00;97010.48;109504;1251;61051;-69
2023/10/26 10:32:44;;;;;;;0.90;0.70;;;;;;;16.34;100.00;97010.31;109652;1249;65193;-68
2023/10/26 10:35:12;;;;;;;0.80;0.80;;;;;;;16.16;100.00;97013.25;109658;1250;58958;-68
2023/10/26 10:37:38;;;;;;;1.50;1.30;;;;;;;16.01;100.00;97007.35;109671;1250;58879;-68
2023/10/26 10:40:16;;;;;;;0.70;0.70;;;;;;;16.01;100.00;97011.48;109698;1250;60007;-68
2023/10/26 10:42:50;;;;;;;1.60;0.90;;;;;;;15.86;100.00;97012.02;109674;1250;60311;-68
2023/10/26 10:45:17;;;;;;;1.10;0.90;;;;;;;15.80;100.00;97008.43;109683;1249;64154;-68
2023/10/26 10:47:47;;;;;;;4.50;1.10;;;;;;;15.85;100.00;97005.93;109692;1249;59195;-68
2023/10/26 10:50:18;;;;;;;1.00;0.60;;;;;;;15.99;100.00;97012.42;109694;1250;59095;-68
2023/10/26 10:52:47;;;;;;;1.00;0.80;;;;;;;16.16;100.00;97005.77;109712;1250;66033;-68
2023/10/26 10:55:24;;;;;;;1.10;0.80;;;;;;;16.36;100.00;97008.14;109699;1249;59120;-68
2023/10/26 10:58:02;;;;;;;1.50;1.10;;;;;;;16.60;100.00;97011.52;109704;1250;63751;-69
2023/10/26 11:00:44;;;;;;;3.10;0.70;;;;;;;16.84;100.00;97008.16;109657;1249;58951;-69
2023/10/26 11:03:20;;;;;;;2.00;0.70;;;;;;;17.05;100.00;97008.73;109367;1249;58946;-69
2023/10/26 11:05:49;;;;;;;1.50;1.00;;;;;;;17.23;100.00;97012.08;109509;1250;67250;-69
2023/10/26 11:08:16;;;;;;;0.70;0.60;;;;;;;17.28;100.00;97015.77;109683;1250;59512;-69
2023/10/26 11:10:48;;;;;;;1.10;1.00;;;;;;;17.25;100.00;97008.77;109710;1250;64059;-68
2023/10/26 11:13:22;;;;;;;1.00;0.80;;;;;;;17.24;100.00;97004.28;109662;1250;59116;-68
2023/10/26 11:15:48;;;;;;;1.10;0.70;;;;;;;17.44;100.00;97003.27;109741;1249;59331;-68
2023/10/26 11:18:15;;;;;;;1.90;0.70;;;;;;;17.67;100.00;97004.18;109727;1249;66599;-68
2023/10/26 11:20:45;;;;;;;0.80;0.60;;;;;;;17.74;100.00;97002.65;109564;1249;60034;-69
2023/10/26 11:23:14;;;;;;;1.20;0.80;;;;;;;17.81;100.00;96994.86;109695;1249;62564;-69
2023/10/26 11:25:41;;;;;;;1.10;0.80;;;;;;;17.86;100.00;96998.58;109689;1250;59570;-69
2023/10/26 11:28:08;;;;;;;0.70;0.70;;;;;;;17.71;100.00;97001.82;109696;1250;59215;-69
2023/10/26 11:30:46;;;;;;;1.50;0.70;;;;;;;17.52;100.00;96998.92;109661;1250;64926;-69
2023/10/26 11:33:29;;;;;;;1.10;0.80;;;;;;;17.36;100.00;97003.57;109653;1250;60121;-69
2023/10/26 11:35:56;;;;;;;1.90;0.90;;;;;;;17.25;100.00;97003.92;109663;1249;62965;-69
2023/10/26 11:38:22;;;;;;;0.80;0.80;;;;;;;17.17;100.00;97005.85;109693;1249;59067;-69
2023/10/26 11:40:49;;;;;;;0.80;0.60;;;;;;;17.09;100.00;97006.11;109705;1249;61362;-68
2023/10/26 11:43:16;;;;;;;1.70;1.00;;;;;;;17.06;100.00;97010.05;109674;1250;59234;-69
2023/10/26 11:45:48;;;;;;;1.30;0.70;;;;;;;17.05;100.00;97014.48;109666;1250;59093;-69
2023/10/26 11:48:27;;;;;;;0.60;0.50;;;;;;;17.04;100.00;97015.13;109698;1249;62925;-69
2023/10/26 11:50:53;;;;;;;2.60;0.90;;;;;;;17.01;100.00;97013.02;109399;1250;59013;-69
2023/10/26 11:53:22;;;;;;;1.20;0.80;;;;;;;17.04;100.00;97011.06;109712;1250;58978;-69
2023/10/26 11:55:50;;;;;;;0.90;0.70;;;;;;;17.09;100.00;97005.36;109668;1251;64602;-69
2023/10/26 11:58:17;;;;;;;2.20;1.20;;;;;;;17.08;100.00;97005.73;109729;1250;60017;-69
2023/10/26 12:00:44;;;;;;;1.40;1.30;;;;;;;17.06;100.00;97007.58;109685;1249;63874;-69
2023/10/26 12:03:11;;;;;;;26.40;18.60;;;;;;;16.98;100.00;97001.94;109679;1250;58982;-68
2023/10/26 12:05:38;;;;;;;5.00;3.40;;;;;;;16.87;100.00;97000.59;109678;1250;59027;-68
2023/10/26 12:08:04;;;;;;;2.50;2.30;;;;;;;16.75;100.00;97009.76;109691;1250;66687;-68
2023/10/26 12:10:31;;;;;;;2.00;1.10;;;;;;;16.71;100.00;97012.10;109683;1249;58996;-68
2023/10/26 12:13:01;;;;;;;1.40;0.60;;;;;;;16.71;100.00;97004.39;109519;1249;65091;-68
2023/10/26 12:15:30;;;;;;;1.30;0.60;;;;;;;16.69;100.00;97005.09;109646;1249;58960;-69
2023/10/26 12:17:56;;;;;;;1.20;0.70;;;;;;;16.66;100.00;97002.41;109341;1250;59032;-69
2023/10/26 12:20:22;;;;;;;1.00;0.50;;;;;;;16.68;100.00;97005.95;109699;1250;59100;-69
2023/10/26 12:22:52;;;;;;;6.70;1.20;;;;;;;16.66;100.00;97005.52;109711;1249;59399;-69
2023/10/26 12:25:18;;;;;;;0.50;0.50;;;;;;;16.63;100.00;96998.40;109661;1250;62593;-68
2023/10/26 12:27:45;;;;;;;1.10;0.60;;;;;;;16.61;100.00;96993.59;109665;1250;59024;-69
2023/10/26 12:30:12;;;;;;;1.00;0.80;;;;;;;16.57;100.00;96993.57;109741;1250;58969;-69
2023/10/26 12:32:39;;;;;;;1.80;0.80;;;;;;;16.49;100.00;96990.21;109685;1250;65895;-69
2023/10/26 12:35:05;;;;;;;0.60;0.60;;;;;;;16.44;100.00;96994.95;109588;1249;61047;-69
2023/10/26 12:37:32;;;;;;;1.40;1.20;;;;;;;16.41;100.00;96999.88;109555;1250;62712;-69
2023/10/26 12:39:58;;;;;;;1.80;0.70;;;;;;;16.39;100.00;97000.94;109696;1250;59194;-69
2023/10/26 12:42:25;;;;;;;3.10;1.70;;;;;;;16.38;100.00;96997.83;109697;1249;59059;-69
2023/10/26 12:44:52;;;;;;;3.20;1.70;;;;;;;16.36;100.00;96999.00;109690;1250;64886;-69
2023/10/26 12:47:18;;;;;;;2.00;1.50;;;;;;;16.31;100.00;97002.13;109738;1250;61376;-69
2023/10/26 12:49:45;;;;;;;3.00;1.70;;;;;;;16.31;100.00;97001.28;109647;1250;59065;-69
2023/10/26 12:52:11;;;;;;;1.40;1.30;;;;;;;16.32;100.00;97000.80;109672;1249;59243;-70
2023/10/26 12:54:38;;;;;;;1.60;1.50;;;;;;;16.38;100.00;97003.65;109689;1249;58994;-69
2023/10/26 12:57:06;;;;;;;3.60;1.20;;;;;;;16.51;100.00;97006.04;109693;1250;65758;-68
2023/10/26 12:59:32;;;;;;;1.60;1.10;;;;;;;16.64;100.00;97012.23;109675;1251;59795;-69
2023/10/26 13:01:59;;;;;;;0.70;0.70;;;;;;;16.74;100.00;97015.87;109660;1250;63942;-69
2023/10/26 13:04:26;;;;;;;1.70;0.90;;;;;;;16.81;100.00;97013.57;109634;1250;58997;-68
2023/10/26 13:06:53;;;;;;;1.00;0.90;;;;;;;16.84;100.00;97020.05;109704;1249;59041;-69
2023/10/26 13:09:19;;;;;;;2.50;0.90;;;;;;;16.81;100.00;97018.20;109700;1249;66784;-68
2023/10/26 13:11:46;;;;;;;2.00;1.10;;;;;;;16.74;100.00;97017.42;109695;1250;59094;-69
2023/10/26 13:14:13;;;;;;;1.30;1.20;;;;;;;16.63;100.00;97016.07;109677;1250;62937;-69
2023/10/26 13:16:39;;;;;;;1.20;0.90;;;;;;;16.51;100.00;97019.91;109667;1250;59035;-69
2023/10/26 13:19:06;;;;;;;1.00;0.90;;;;;;;16.34;100.00;97017.79;109731;1249;58925;-69
2023/10/26 13:21:32;;;;;;;2.60;1.00;;;;;;;16.20;100.00;97020.70;109659;1250;59210;-69
2023/10/26 13:23:59;;;;;;;4.30;1.50;;;;;;;16.09;100.00;97026.88;109558;1249;59087;-69
2023/10/26 13:26:25;;;;;;;2.00;1.50;;;;;;;16.01;100.00;97025.33;109665;1249;59554;-68
2023/10/26 13:28:52;;;;;;;1.70;1.20;;;;;;;15.96;100.00;97023.27;109669;1250;59387;-69
2023/10/26 13:31:18;;;;;;;2.60;1.40;;;;;;;15.93;100.00;97017.65;109704;1250;59031;-68
2023/10/26 13:33:45;;;;;;;2.40;1.80;;;;;;;15.91;100.00;97015.02;109651;1250;65730;-69
2023/10/26 13:36:11;;;;;;;5.20;2.20;;;;;;;15.91;100.00;97016.23;109710;1251;59274;-69
2023/10/26 13:38:38;;;;;;;2.30;1.60;;;;;;;15.95;100.00;97015.09;109711;1249;59049;-69
2023/10/26 13:41:06;;;;;;;1.70;1.10;;;;;;;15.94;100.00;97017.25;109374;1250;59406;-69
2023/10/26 13:43:33;;;;;;;1.80;1.60;;;;;;;15.88;100.00;97017.25;109704;1249;58968;-69
2023/10/26 13:46:04;;;;;;;3.50;2.00;;;;;;;15.79;100.00;97017.01;109705;1250;65999;-69
2023/10/26 13:48:31;;;;;;;1.50;1.10;;;;;;;15.72;100.00;97011.38;109652;1251;58959;-69
2023/10/26 13:50:57;;;;;;;2.30;1.40;;;;;;;15.69;100.00;97010.73;109660;1250;64047;-68
2023/10/26 13:53:24;;;;;;;1.40;1.10;;;;;;;15.67;100.00;97007.58;109688;1249;58971;-70
2023/10/26 13:55:50;;;;;;;4.00;1.40;;;;;;;15.65;100.00;97011.48;109519;1249;59060;-67
2023/10/26 13:58:17;;;;;;;1.20;1.10;;;;;;;15.64;100.00;97014.52;109648;1249;59020;-69
2023/10/26 14:00:43;;;;;;;1.50;1.10;;;;;;;15.58;100.00;97013.64;109682;1250;58926;-67
2023/10/26 14:03:10;;;;;;;4.50;1.50;;;;;;;15.52;100.00;97010.60;109662;1250;59097;-69
2023/10/26 14:05:37;;;;;;;3.00;1.40;;;;;;;15.45;100.00;97011.54;109690;1250;58949;-69
2023/10/26 14:08:03;;;;;;;1.60;1.20;;;;;;;15.36;100.00;97010.81;109665;1249;59007;-69
2023/10/26 14:10:30;;;;;;;3.10;1.30;;;;;;;15.27;100.00;97005.55;109726;1250;66023;-68
2023/10/26 14:12:57;;;;;;;3.10;1.50;;;;;;;15.25;100.00;96995.48;109690;1250;59026;-69
2023/10/26 14:15:23;;;;;;;2.90;1.60;;;;;;;15.24;100.00;96990.76;109684;1250;59041;-69
2023/10/26 14:17:50;;;;;;;4.70;2.40;;;;;;;15.17;100.00;96989.04;109725;1250;59167;-69
2023/10/26 14:20:16;;;;;;;2.90;1.90;;;;;;;15.07;100.00;96992.95;109716;1249;59051;-68
2023/10/26 14:22:43;;;;;;;2.70;1.70;;;;;;;14.98;100.00;96996.67;109646;1252;66825;-68
2023/10/26 14:25:09;;;;;;;2.30;1.90;;;;;;;14.91;100.00;96993.20;109428;1250;59044;-69
2023/10/26 14:27:36;;;;;;;2.80;1.90;;;;;;;14.83;100.00;96992.73;109482;1251;59765;-69
2023/10/26 14:30:03;;;;;;;4.50;2.20;;;;;;;14.75;100.00;96999.59;109711;1249;59284;-69
2023/10/26 14:32:29;;;;;;;2.90;1.70;;;;;;;14.66;100.00;97006.81;109349;1250;59081;-69
2023/10/26 14:34:56;;;;;;;3.40;2.10;;;;;;;14.59;100.00;97010.58;109711;1250;59584;-69
2023/10/26 14:37:22;;;;;;;3.80;2.30;;;;;;;14.52;100.00;97016.63;109683;1251;59049;-69
2023/10/26 14:39:49;;;;;;;2.60;2.20;;;;;;;14.49;100.00;97019.12;109652;1251;58988;-69
2023/10/26 14:42:15;;;;;;;7.40;2.80;;;;;;;14.48;100.00;97015.67;109728;1250;58983;-69
2023/10/26 14:44:42;;;;;;;2.40;2.20;;;;;;;14.46;100.00;97015.27;109669;1250;59294;-68
2023/10/26 14:47:08;;;;;;;3.50;2.40;;;;;;;14.45;100.00;97016.52;109667;1250;59040;-69
2023/10/26 14:49:36;;;;;;;4.40;2.10;;;;;;;14.43;100.00;97021.59;109717;1251;59294;-69
2023/10/26 14:52:03;;;;;;;3.30;2.40;;;;;;;14.40;100.00;97019.96;109676;1250;64078;-69
2023/10/26 14:54:30;;;;;;;4.70;2.50;;;;;;;14.36;100.00;97025.58;109662;1249;59048;-69
2023/10/26 14:56:57;;;;;;;5.20;2.50;;;;;;;14.34;100.00;97023.52;109703;1250;59186;-69
2023/10/26 14:59:24;;;;;;;2.50;2.20;;;;;;;14.33;100.00;97025.66;109706;1250;64494;-69
2023/10/26 15:01:50;;;;;;;4.90;2.60;;;;;;;14.31;100.00;97024.44;109421;1250;61807;-69
2023/10/26 15:04:17;;;;;;;4.50;3.00;;;;;;;14.28;100.00;97027.89;109652;1249;64428;-68
2023/10/26 15:06:47;;;;;;;3.10;2.50;;;;;;;14.25;100.00;97032.88;109541;1249;59021;-69
2023/10/26 15:09:14;;;;;;;4.00;2.20;;;;;;;14.23;100.00;97037.39;109723;1250;59088;-68
2023/10/26 15:11:41;;;;;;;4.20;2.40;;;;;;;14.21;100.00;97036.96;109415;1251;64565;-69
2023/10/26 15:14:10;;;;;;;4.00;2.70;;;;;;;14.18;100.00;97035.85;109752;1250;59341;-67
2023/10/26 15:16:36;;;;;;;7.20;3.50;;;;;;;14.15;100.00;97044.25;109718;1250;65608;-68
2023/10/26 15:19:02;;;;;;;7.30;3.50;;;;;;;14.11;100.00;97046.19;109835;1250;59357;-68
2023/10/26 15:21:29;;;;;;;6.00;3.20;;;;;;;14.08;100.00;97045.59;109857;1250;59652;-68
2023/10/26 15:23:56;;;;;;;5.40;3.70;;;;;;;14.05;100.00;97049.48;109880;1250;59291;-68
2023/10/26 15:26:22;;;;;;;5.50;3.50;;;;;;;14.02;100.00;97052.91;109899;1249;59125;-68
2023/10/26 15:28:49;;;;;;;4.40;3.50;;;;;;;13.99;100.00;97053.41;109807;1250;59137;-68
2023/10/26 15:31:15;;;;;;;6.70;3.30;;;;;;;13.96;100.00;97052.45;109844;1251;58915;-68
2023/10/26 15:33:42;;;;;;;5.90;3.70;;;;;;;13.93;100.00;97055.48;109846;1250;58922;-68
2023/10/26 15:36:08;;;;;;;6.90;3.80;;;;;;;13.89;100.00;97052.88;109882;1250;59114;-69
2023/10/26 15:38:40;;;;;;;5.20;4.10;;;;;;;13.86;100.00;97053.41;109836;1251;58984;-68
2023/10/26 15:41:07;;;;;;;4.30;3.70;;;;;;;13.80;100.00;97055.48;109840;1250;62497;-69
2023/10/26 15:43:34;;;;;;;8.20;4.10;;;;;;;13.75;100.00;97051.93;109564;1250;59008;-69
2023/10/26 15:46:02;;;;;;;6.60;4.80;;;;;;;13.70;100.00;97053.25;109848;1250;58967;-69
2023/10/26 15:48:33;;;;;;;10.70;6.40;;;;;;;13.64;100.00;97054.89;109793;1250;64534;-69
2023/10/26 15:51:01;;;;;;;13.50;7.70;;;;;;;13.58;100.00;97054.16;109859;1249;59119;-69
2023/10/26 15:53:28;;;;;;;8.70;5.60;;;;;;;13.52;100.00;97058.89;109799;1250;65272;-69
2023/10/26 15:55:56;;;;;;;12.10;6.60;;;;;;;13.48;100.00;97059.70;109412;1250;60020;-69
2023/10/26 15:58:22;;;;;;;10.80;6.90;;;;;;;13.45;100.00;97061.34;109847;1249;59073;-69
2023/10/26 16:00:57;;;;;;;9.30;5.90;;;;;;;13.41;100.00;97069.43;109804;1250;67204;-69
2023/10/26 16:03:29;;;;;;;7.60;5.50;;;;;;;13.38;100.00;97072.45;109546;1250;60234;-69
2023/10/26 16:06:03;;;;;;;10.00;5.50;;;;;;;13.36;100.00;97074.92;109809;1251;62869;-69
2023/10/26 16:08:30;;;;;;;9.80;6.80;;;;;;;13.34;100.00;97078.23;109789;1250;59259;-69